Time;durP1;ratioP1;P1;durP2;ratioP2;P2;SDS_P1;SDS_P2;PMS_P1;PMS_P2;Temp;Humidity;BMP_temperature;BMP_pressure;BME280_temperature;BME280_humidity;BME280_pressure;Samples;Min_cycle;Max_cycle;Signal;HPM_P1;HPM_P2
2022/10/22 00:00:09;;;;;;;2.83;1.50;;;;;;;;;;6189022;23;20003;-87
2022/10/22 00:02:39;;;;;;;3.88;1.58;;;;;;;;;;6163194;23;20007;-87
2022/10/22 00:05:05;;;;;;;3.13;1.50;;;;;;;;;;6213159;23;20028;-87
2022/10/22 00:07:31;;;;;;;2.25;1.30;;;;;;;;;;6163639;23;20000;-86
2022/10/22 00:09:57;;;;;;;3.38;1.70;;;;;;;;;;6187550;23;20014;-87
2022/10/22 00:12:22;;;;;;;4.45;1.50;;;;;;;;;;6187858;23;20012;-89
2022/10/22 00:14:48;;;;;;;2.70;1.30;;;;;;;;;;6188019;23;20519;-87
2022/10/22 00:17:14;;;;;;;3.03;1.80;;;;;;;;;;6188025;23;20004;-88
2022/10/22 00:19:40;;;;;;;;;;;;;;;;;;6188654;23;20020;-87
2022/10/22 00:22:10;;;;;;;2.03;1.30;;;;;;;;;;6188374;23;19904;-88
2022/10/22 00:24:57;;;;;;;2.92;1.60;;;;;;;;;;6218408;23;20024;-87
2022/10/22 00:27:23;;;;;;;4.40;1.75;;;;;;;;;;6188033;23;20051;-87
2022/10/22 00:29:49;;;;;;;3.22;1.60;;;;;;;;;;6189847;23;20016;-88
2022/10/22 00:32:15;;;;;;;3.75;1.45;;;;;;;;;;6189555;23;20005;-86
2022/10/22 00:34:40;;;;;;;3.38;1.60;;;;;;;;;;6163591;23;20056;-87
2022/10/22 00:37:07;;;;;;;4.20;1.38;;;;;;;;;;6190106;23;20000;-86
2022/10/22 00:39:33;;;;;;;2.95;1.65;;;;;;;;;;6188549;23;20023;-86
2022/10/22 00:41:59;;;;;;;4.78;1.50;;;;;;;;;;6188188;23;20028;-86
2022/10/22 00:44:44;;;;;;;2.40;1.40;;;;;;;;;;6188640;23;20361;-86
2022/10/22 00:47:10;;;;;;;3.07;1.53;;;;;;;;;;6212395;23;20049;-86
2022/10/22 00:49:36;;;;;;;3.60;1.55;;;;;;;;;;6184547;23;20227;-86
2022/10/22 00:52:02;;;;;;;2.50;1.30;;;;;;;;;;6186249;23;20021;-87
2022/10/22 00:54:28;;;;;;;2.95;1.48;;;;;;;;;;6212707;23;20036;-87
2022/10/22 00:56:54;;;;;;;2.40;1.38;;;;;;;;;;6185871;23;20012;-87
2022/10/22 00:59:20;;;;;;;4.55;1.45;;;;;;;;;;6186551;23;19985;-87
2022/10/22 01:01:46;;;;;;;3.63;1.60;;;;;;;;;;6186368;23;20020;-87
2022/10/22 01:04:12;;;;;;;2.25;1.50;;;;;;;;;;6213325;23;20001;-87
2022/10/22 01:06:38;;;;;;;2.63;1.42;;;;;;;;;;6187715;23;20022;-87
2022/10/22 01:09:04;;;;;;;;;;;;;;;;;;6212063;23;20039;-86
2022/10/22 01:11:30;;;;;;;2.33;1.38;;;;;;;;;;6186491;23;19916;-86
2022/10/22 01:13:55;;;;;;;3.08;1.60;;;;;;;;;;6184935;23;20004;-87
2022/10/22 01:16:24;;;;;;;2.75;1.67;;;;;;;;;;6187083;23;20004;-86
2022/10/22 01:18:51;;;;;;;3.53;1.63;;;;;;;;;;6188972;23;20009;-88
2022/10/22 01:21:32;;;;;;;3.35;1.58;;;;;;;;;;6213295;23;20012;-87
2022/10/22 01:24:01;;;;;;;2.78;1.30;;;;;;;;;;6164398;23;19992;-87
2022/10/22 01:26:38;;;;;;;3.33;1.60;;;;;;;;;;6259381;22;20028;-87
2022/10/22 01:29:06;;;;;;;2.47;1.60;;;;;;;;;;6248888;22;20016;-87
2022/10/22 01:31:33;;;;;;;3.08;1.70;;;;;;;;;;6247458;22;20011;-87
2022/10/22 01:33:59;;;;;;;4.93;2.10;;;;;;;;;;6248134;22;20011;-85
2022/10/22 01:36:24;;;;;;;2.40;1.30;;;;;;;;;;6248101;22;20454;-87
2022/10/22 01:39:15;;;;;;;3.75;1.70;;;;;;;;;;6237743;22;20020;-87
2022/10/22 01:41:44;;;;;;;3.78;1.60;;;;;;;;;;6241854;23;20008;-87
2022/10/22 01:44:22;;;;;;;4.32;1.70;;;;;;;;;;6246756;23;20016;-87
2022/10/22 01:46:49;;;;;;;2.78;1.58;;;;;;;;;;6274050;22;20065;-88
2022/10/22 01:49:26;;;;;;;2.60;1.75;;;;;;;;;;6196634;23;19993;-87
2022/10/22 01:51:52;;;;;;;2.85;1.58;;;;;;;;;;6221758;23;20011;-88
2022/10/22 01:54:21;;;;;;;4.20;1.52;;;;;;;;;;6246843;23;20000;-88
2022/10/22 01:57:03;;;;;;;3.60;1.70;;;;;;;;;;6247732;23;20016;-86
2022/10/22 02:00:05;;;;;;;4.60;1.67;;;;;;;;;;6272234;22;19988;-88
2022/10/22 02:02:39;;;;;;;2.28;1.60;;;;;;;;;;6271551;23;20067;-86
2022/10/22 02:05:05;;;;;;;3.97;1.90;;;;;;;;;;6195990;23;20008;-88
2022/10/22 02:07:32;;;;;;;2.30;1.63;;;;;;;;;;6246699;23;20051;-86
2022/10/22 02:23:27;;;;;;;2.80;1.83;;;;;;;;;;6300774;22;20069;-86
2022/10/22 02:25:54;;;;;;;4.05;1.85;;;;;;;;;;6252988;22;20011;-86
2022/10/22 02:28:28;;;;;;;2.75;1.90;;;;;;;;;;6278216;22;20003;-88
2022/10/22 02:30:55;;;;;;;3.17;2.00;;;;;;;;;;6274626;22;20068;-85
2022/10/22 02:33:22;;;;;;;5.78;1.90;;;;;;;;;;6249661;22;20001;-87
2022/10/22 02:35:47;;;;;;;3.72;2.03;;;;;;;;;;6274784;22;20183;-87
2022/10/22 02:38:13;;;;;;;5.35;2.45;;;;;;;;;;6249672;22;19995;-87
2022/10/22 02:40:39;;;;;;;4.38;2.17;;;;;;;;;;6276643;22;20036;-86
2022/10/22 02:43:04;;;;;;;3.60;2.30;;;;;;;;;;6250354;22;20020;-87
2022/10/22 02:45:30;;;;;;;3.63;2.28;;;;;;;;;;6281357;22;20015;-88
2022/10/22 02:47:56;;;;;;;3.65;2.30;;;;;;;;;;6283246;22;20007;-87
2022/10/22 02:53:08;;;;;;;3.67;2.50;;;;;;;;;;6335217;22;20027;-88
2022/10/22 02:55:35;;;;;;;4.45;2.40;;;;;;;;;;6281101;22;20022;-87
2022/10/22 02:58:01;;;;;;;5.75;2.50;;;;;;;;;;6255677;22;20007;-88
2022/10/22 03:00:27;;;;;;;5.55;2.88;;;;;;;;;;6306163;22;20017;-87
2022/10/22 03:02:56;;;;;;;5.60;2.50;;;;;;;;;;6257653;22;19975;-88
2022/10/22 03:05:41;;;;;;;6.82;2.50;;;;;;;;;;6333407;22;20386;-86
2022/10/22 03:08:06;;;;;;;3.85;2.50;;;;;;;;;;6279608;22;20015;-87
2022/10/22 03:10:37;;;;;;;4.15;2.25;;;;;;;;;;6282138;22;20019;-88
2022/10/22 03:13:06;;;;;;;3.85;2.30;;;;;;;;;;6307100;22;20014;-86
2022/10/22 03:18:13;;;;;;;5.93;2.70;;;;;;;;;;6363402;22;20030;-87
2022/10/22 03:20:38;;;;;;;4.13;2.80;;;;;;;;;;6310664;22;20007;-86
2022/10/22 03:23:05;;;;;;;4.47;2.92;;;;;;;;;;6308702;22;20010;-86
2022/10/22 03:25:33;;;;;;;4.93;2.60;;;;;;;;;;6306154;22;20094;-86
2022/10/22 03:28:02;;;;;;;4.10;2.42;;;;;;;;;;6280140;22;20022;-86
2022/10/22 03:30:27;;;;;;;5.13;2.80;;;;;;;;;;6303671;22;20010;-85
2022/10/22 03:32:53;;;;;;;5.15;2.90;;;;;;;;;;6305053;22;20021;-85
2022/10/22 03:35:18;;;;;;;5.93;2.67;;;;;;;;;;6304904;22;20007;-86
2022/10/22 03:37:44;;;;;;;3.60;2.35;;;;;;;;;;6334594;22;19994;-86
2022/10/22 03:40:10;;;;;;;5.78;2.70;;;;;;;;;;6308681;22;20026;-87
2022/10/22 03:42:36;;;;;;;5.10;2.60;;;;;;;;;;6334866;22;19979;-87
2022/10/22 03:45:02;;;;;;;5.30;2.80;;;;;;;;;;6308350;22;20067;-86
2022/10/22 03:47:28;;;;;;;5.18;2.70;;;;;;;;;;6283214;22;20511;-87
2022/10/22 03:49:54;;;;;;;;;;;;;;;;;;6307381;22;20071;-86
2022/10/22 03:52:19;;;;;;;7.55;2.97;;;;;;;;;;6333270;22;19906;-86
2022/10/22 03:54:45;;;;;;;4.75;3.05;;;;;;;;;;6309923;22;20026;-88
2022/10/22 03:57:11;;;;;;;4.78;2.75;;;;;;;;;;6286196;22;20002;-88
2022/10/22 03:59:38;;;;;;;4.32;2.50;;;;;;;;;;6313539;22;19995;-88
2022/10/22 04:02:07;;;;;;;5.22;2.72;;;;;;;;;;6341100;22;19996;-88
2022/10/22 04:07:08;;;;;;;5.63;2.90;;;;;;;;;;6352914;22;20003;-89
2022/10/22 04:09:59;;;;;;;4.88;2.72;;;;;;;;;;6325305;22;20030;-88
2022/10/22 04:12:48;;;;;;;5.10;3.35;;;;;;;;;;6322773;22;19999;-87
2022/10/22 04:15:36;;;;;;;4.38;3.00;;;;;;;;;;6318308;22;19998;-88
2022/10/22 04:18:14;;;;;;;7.95;3.05;;;;;;;;;;6340385;22;20038;-87
2022/10/22 04:20:50;;;;;;;5.30;3.13;;;;;;;;;;6314152;22;20015;-85
2022/10/22 04:23:17;;;;;;;7.13;3.60;;;;;;;;;;6309707;22;20012;-87
2022/10/22 04:25:43;;;;;;;5.70;3.22;;;;;;;;;;6284870;22;20028;-88
2022/10/22 04:28:14;;;;;;;6.40;3.03;;;;;;;;;;6336744;22;20014;-87
2022/10/22 04:30:41;;;;;;;6.10;3.60;;;;;;;;;;6285612;22;20022;-86
2022/10/22 04:33:07;;;;;;;;;;;;;;;;;;6313100;22;19987;-87
2022/10/22 04:35:38;;;;;;;6.20;3.42;;;;;;;;;;6338345;22;19954;-88
2022/10/22 04:38:06;;;;;;;4.65;3.10;;;;;;;;;;6314730;22;20011;-87
2022/10/22 04:40:35;;;;;;;7.25;3.30;;;;;;;;;;6336555;22;20002;-87
2022/10/22 04:43:01;;;;;;;6.47;3.28;;;;;;;;;;6283293;22;20007;-87
2022/10/22 04:45:26;;;;;;;4.72;3.22;;;;;;;;;;6309994;22;20006;-86
2022/10/22 04:47:53;;;;;;;6.43;4.32;;;;;;;;;;6283079;22;20026;-86
2022/10/22 04:53:01;;;;;;;5.25;3.55;;;;;;;;;;6365319;22;20010;-88
2022/10/22 04:55:29;;;;;;;6.65;3.70;;;;;;;;;;6312735;22;19991;-87
2022/10/22 04:57:55;;;;;;;7.45;3.75;;;;;;;;;;6285488;22;19997;-89
2022/10/22 05:00:31;;;;;;;6.32;3.60;;;;;;;;;;6312712;22;19991;-88
2022/10/22 05:02:58;;;;;;;5.90;3.70;;;;;;;;;;6337204;22;20011;-85
2022/10/22 05:05:24;;;;;;;6.05;3.83;;;;;;;;;;6306165;22;20009;-84
2022/10/22 05:15:49;;;;;;;5.68;4.00;;;;;;;;;;6355567;22;20030;-86
2022/10/22 05:18:14;;;;;;;9.30;4.00;;;;;;;;;;6305926;22;20070;-86
2022/10/22 05:20:41;;;;;;;6.60;4.18;;;;;;;;;;6306593;22;19995;-89
2022/10/22 05:23:10;;;;;;;8.27;4.28;;;;;;;;;;6338059;22;20007;-87
2022/10/22 05:25:39;;;;;;;8.00;4.57;;;;;;;;;;6312840;22;19979;-85
2022/10/22 05:28:09;;;;;;;6.40;4.28;;;;;;;;;;6308423;22;20359;-84
2022/10/22 05:30:38;;;;;;;7.18;4.85;;;;;;;;;;6300451;22;20052;-87
2022/10/22 05:33:06;;;;;;;7.85;4.63;;;;;;;;;;6297843;22;20027;-87
2022/10/22 05:35:32;;;;;;;7.90;4.70;;;;;;;;;;6282053;22;20023;-84
2022/10/22 05:37:57;;;;;;;7.57;4.78;;;;;;;;;;6268379;22;20021;-83
2022/10/22 05:40:23;;;;;;;8.55;4.90;;;;;;;;;;6286481;22;20008;-85
2022/10/22 05:42:48;;;;;;;7.40;4.60;;;;;;;;;;6264749;22;20004;-86
2022/10/22 05:45:16;;;;;;;9.57;5.50;;;;;;;;;;6310026;22;20004;-82
2022/10/22 05:47:42;;;;;;;8.02;4.47;;;;;;;;;;6295843;22;20011;-84
2022/10/22 05:50:07;;;;;;;8.82;4.43;;;;;;;;;;6295825;22;20003;-82
2022/10/22 05:52:33;;;;;;;6.10;4.15;;;;;;;;;;6296349;22;20014;-83
2022/10/22 05:54:59;;;;;;;7.63;4.65;;;;;;;;;;6299129;22;20003;-83
2022/10/22 05:57:25;;;;;;;5.65;4.32;;;;;;;;;;6294772;22;20042;-82
2022/10/22 05:59:51;;;;;;;7.43;4.20;;;;;;;;;;6265969;22;19999;-85
2022/10/22 06:02:16;;;;;;;6.43;4.40;;;;;;;;;;6265386;22;20015;-83
2022/10/22 06:04:42;;;;;;;7.40;5.65;;;;;;;;;;6268353;22;19999;-86
2022/10/22 06:07:08;;;;;;;10.18;5.28;;;;;;;;;;6320370;22;20003;-84
2022/10/22 06:09:35;;;;;;;8.85;5.00;;;;;;;;;;6296548;22;20055;-83
2022/10/22 06:12:01;;;;;;;7.88;4.70;;;;;;;;;;6300131;22;19999;-85
2022/10/22 06:14:28;;;;;;;8.63;5.95;;;;;;;;;;6298748;22;20017;-85
2022/10/22 06:16:54;;;;;;;7.20;5.00;;;;;;;;;;6269184;22;20008;-83
2022/10/22 06:22:00;;;;;;;7.00;4.40;;;;;;;;;;6354203;22;20057;-84
2022/10/22 06:24:26;;;;;;;6.43;4.07;;;;;;;;;;6288959;22;20036;-83
2022/10/22 06:26:52;;;;;;;7.22;4.75;;;;;;;;;;6266495;22;20016;-83
2022/10/22 06:29:18;;;;;;;8.25;4.93;;;;;;;;;;6269067;22;20038;-85
2022/10/22 06:31:43;;;;;;;9.82;4.60;;;;;;;;;;6240958;22;20038;-85
2022/10/22 06:34:10;;;;;;;6.82;4.97;;;;;;;;;;6271924;22;20065;-86
2022/10/22 06:36:37;;;;;;;7.10;4.95;;;;;;;;;;6266025;22;20336;-82
2022/10/22 06:39:03;;;;;;;6.65;4.47;;;;;;;;;;6263838;22;20023;-83
2022/10/22 06:41:28;;;;;;;;;;;;;;;;;;6267459;22;19999;-83
2022/10/22 06:43:56;;;;;;;9.13;5.22;;;;;;;;;;6290724;22;19907;-83
2022/10/22 06:46:21;;;;;;;8.13;5.43;;;;;;;;;;6264507;22;20004;-84
2022/10/22 06:48:48;;;;;;;7.07;4.70;;;;;;;;;;6265831;22;20318;-86
2022/10/22 06:51:13;;;;;;;8.70;5.15;;;;;;;;;;6298615;22;20015;-84
2022/10/22 06:53:40;;;;;;;6.25;4.88;;;;;;;;;;6272051;22;20011;-85
2022/10/22 06:56:06;;;;;;;9.65;4.70;;;;;;;;;;6270604;22;19980;-83
2022/10/22 06:58:40;;;;;;;7.25;4.60;;;;;;;;;;6270794;22;20016;-84
2022/10/22 07:01:07;;;;;;;7.65;4.80;;;;;;;;;;6322939;22;20014;-85
2022/10/22 07:03:32;;;;;;;7.57;4.13;;;;;;;;;;6270337;22;20130;-85
2022/10/22 07:05:59;;;;;;;6.30;3.60;;;;;;;;;;6299250;22;19984;-86
2022/10/22 07:08:25;;;;;;;7.18;4.22;;;;;;;;;;6272960;22;19996;-85
2022/10/22 07:10:51;;;;;;;6.47;4.03;;;;;;;;;;6271391;22;20012;-84
2022/10/22 07:13:16;;;;;;;5.50;3.97;;;;;;;;;;6272133;22;20022;-83
2022/10/22 07:15:42;;;;;;;5.72;4.03;;;;;;;;;;6294598;22;20012;-83
2022/10/22 07:18:07;;;;;;;6.13;3.67;;;;;;;;;;6269497;22;19995;-83
2022/10/22 07:25:50;;;;;;;6.60;3.92;;;;;;;;;;6290004;22;20035;-85
2022/10/22 07:28:15;;;;;;;6.43;3.60;;;;;;;;;;6242470;22;20016;-83
2022/10/22 07:30:41;;;;;;;6.05;4.10;;;;;;;;;;6241371;22;20062;-83
2022/10/22 07:33:07;;;;;;;5.32;4.20;;;;;;;;;;6241431;22;20016;-83
2022/10/22 07:35:33;;;;;;;9.18;4.32;;;;;;;;;;6240471;22;20091;-82
2022/10/22 07:38:19;;;;;;;6.97;4.10;;;;;;;;;;6270341;22;20030;-86
2022/10/22 07:40:45;;;;;;;6.13;4.03;;;;;;;;;;6287209;22;20454;-82
2022/10/22 07:43:10;;;;;;;6.53;3.92;;;;;;;;;;6265627;22;20057;-83
2022/10/22 07:45:36;;;;;;;9.07;3.60;;;;;;;;;;6242676;22;20007;-82
2022/10/22 07:48:02;;;;;;;7.90;4.25;;;;;;;;;;6240063;22;20482;-80
2022/10/22 07:50:27;;;;;;;5.80;3.72;;;;;;;;;;6263152;22;20018;-83
2022/10/22 07:52:53;;;;;;;6.40;3.85;;;;;;;;;;6263399;22;20000;-81
2022/10/22 07:55:18;;;;;;;6.70;3.70;;;;;;;;;;6261365;22;20011;-81
2022/10/22 07:57:44;;;;;;;7.35;3.60;;;;;;;;;;6262008;22;19995;-82
2022/10/22 08:00:11;;;;;;;;;;;;;;;;;;6263331;22;20035;-82
2022/10/22 08:02:39;;;;;;;6.40;3.60;;;;;;;;;;6292674;22;19902;-83
2022/10/22 08:05:04;;;;;;;6.80;4.05;;;;;;;;;;6265756;22;20336;-82
2022/10/22 08:07:30;;;;;;;8.07;4.22;;;;;;;;;;6269752;22;20000;-83
2022/10/22 08:09:57;;;;;;;4.90;3.67;;;;;;;;;;6266488;22;20020;-82
2022/10/22 08:15:16;;;;;;;5.43;3.75;;;;;;;;;;6332468;22;20033;-85
2022/10/22 08:18:04;;;;;;;6.15;4.53;;;;;;;;;;6350766;22;20038;-84
2022/10/22 08:20:30;;;;;;;6.60;5.43;;;;;;;;;;6276614;22;20015;-83
2022/10/22 08:22:56;;;;;;;;;;;;;;;;;;6307836;22;19990;-83
2022/10/22 08:25:24;;;;;;;9.48;6.15;;;;;;;;;;6358301;22;19907;-82
2022/10/22 08:27:49;;;;;;;9.35;5.93;;;;;;;;;;6275843;22;20046;-82
2022/10/22 08:30:15;;;;;;;;;;;;;;;;;;6274208;22;20038;-82
2022/10/22 08:32:40;;;;;;;7.72;5.75;;;;;;;;;;6300776;22;19903;-82
2022/10/22 08:35:06;;;;;;;8.02;4.93;;;;;;;;;;6322736;22;20006;-82
2022/10/22 08:37:32;;;;;;;8.27;4.85;;;;;;;;;;6273490;22;20093;-81
2022/10/22 08:39:57;;;;;;;;;;;;;;;;;;6273616;22;20014;-82
2022/10/22 08:42:29;;;;;;;6.20;4.35;;;;;;;;;;6302089;22;19902;-83
2022/10/22 08:45:14;;;;;;;7.35;4.57;;;;;;;;;;6305092;22;20018;-84
2022/10/22 08:47:42;;;;;;;7.78;4.90;;;;;;;;;;6307505;22;20021;-81
2022/10/22 08:50:11;;;;;;;7.20;4.55;;;;;;;;;;6301571;22;20013;-81
2022/10/22 08:52:39;;;;;;;8.05;4.07;;;;;;;;;;6275522;22;20034;-83
2022/10/22 08:55:05;;;;;;;7.28;4.28;;;;;;;;;;6275855;22;20002;-82
2022/10/22 08:57:51;;;;;;;6.65;4.22;;;;;;;;;;6304374;22;20014;-83
2022/10/22 09:00:21;;;;;;;8.10;4.53;;;;;;;;;;6356664;22;20444;-82
2022/10/22 09:03:09;;;;;;;6.40;4.38;;;;;;;;;;6304876;22;20095;-82
2022/10/22 09:05:53;;;;;;;6.90;4.47;;;;;;;;;;6330385;22;20014;-82
2022/10/22 09:08:22;;;;;;;8.90;4.95;;;;;;;;;;6327827;22;20102;-82
2022/10/22 09:10:52;;;;;;;7.35;4.85;;;;;;;;;;6300646;22;20003;-84
2022/10/22 09:13:20;;;;;;;7.80;5.20;;;;;;;;;;6274713;22;20023;-83
2022/10/22 09:16:06;;;;;;;6.95;4.80;;;;;;;;;;6301109;22;20005;-83
2022/10/22 09:18:49;;;;;;;6.40;4.50;;;;;;;;;;6320340;22;20026;-83
2022/10/22 09:21:15;;;;;;;7.35;4.55;;;;;;;;;;6293885;22;20016;-83
2022/10/22 09:23:47;;;;;;;8.65;4.90;;;;;;;;;;6270282;22;19999;-85
2022/10/22 09:26:13;;;;;;;7.15;5.32;;;;;;;;;;6271655;22;20018;-82
2022/10/22 09:28:39;;;;;;;7.65;5.57;;;;;;;;;;6270977;22;20003;-83
2022/10/22 09:31:10;;;;;;;8.32;5.65;;;;;;;;;;6273359;22;20032;-83
2022/10/22 09:33:36;;;;;;;8.00;5.00;;;;;;;;;;6272346;22;20038;-82
2022/10/22 09:36:02;;;;;;;6.95;5.00;;;;;;;;;;6244137;22;20012;-82
2022/10/22 09:38:29;;;;;;;8.73;5.30;;;;;;;;;;6296442;22;20003;-82
2022/10/22 09:40:55;;;;;;;7.57;4.65;;;;;;;;;;6243991;22;20366;-83
2022/10/22 09:43:21;;;;;;;7.00;4.70;;;;;;;;;;6244491;22;20001;-82
2022/10/22 09:45:47;;;;;;;7.10;4.95;;;;;;;;;;6268858;22;20007;-84
2022/10/22 09:48:12;;;;;;;;;;;;;;;;;;6298311;22;19999;-83
2022/10/22 09:50:40;;;;;;;10.77;6.38;;;;;;;;;;6272997;22;19910;-82
2022/10/22 09:53:12;;;;;;;10.80;5.50;;;;;;;;;;6271938;22;20022;-83
2022/10/22 09:55:38;;;;;;;9.85;5.50;;;;;;;;;;6298542;22;20011;-83
2022/10/22 09:58:04;;;;;;;6.35;4.43;;;;;;;;;;6274883;22;20090;-82
2022/10/22 10:00:29;;;;;;;7.75;4.50;;;;;;;;;;6271392;22;20348;-82
2022/10/22 10:02:55;;;;;;;;;;;;;;;;;;6271119;22;20006;-83
2022/10/22 10:05:32;;;;;;;6.72;4.88;;;;;;;;;;6302463;22;19906;-86
2022/10/22 10:07:58;;;;;;;;;;;;;;;;;;6250969;22;20007;-83
2022/10/22 10:10:32;;;;;;;7.70;4.20;;;;;;;;;;6324515;22;19913;-83
2022/10/22 10:13:10;;;;;;;5.90;3.97;;;;;;;;;;6297158;22;20057;-83
2022/10/22 10:15:36;;;;;;;6.80;4.07;;;;;;;;;;6273039;22;20026;-83
2022/10/22 10:18:22;;;;;;;8.07;4.10;;;;;;;;;;6321499;22;20450;-83
2022/10/22 10:20:56;;;;;;;5.93;4.25;;;;;;;;;;6304470;22;19987;-84
2022/10/22 10:23:42;;;;;;;5.57;3.90;;;;;;;;;;6334792;22;20011;-84
2022/10/22 10:26:35;;;;;;;6.20;4.30;;;;;;;;;;6326034;22;20426;-84
2022/10/22 10:29:13;;;;;;;5.85;4.43;;;;;;;;;;6251669;22;20007;-81
2022/10/22 10:31:41;;;;;;;6.88;3.83;;;;;;;;;;6280803;22;20530;-82
2022/10/22 10:34:26;;;;;;;6.90;4.35;;;;;;;;;;6313765;22;20026;-83
2022/10/22 10:36:55;;;;;;;7.35;4.93;;;;;;;;;;6326041;22;20454;-84
2022/10/22 10:39:43;;;;;;;7.13;5.13;;;;;;;;;;6302829;22;20002;-82
2022/10/22 10:42:20;;;;;;;8.07;5.10;;;;;;;;;;6278577;22;20011;-83
2022/10/22 10:47:41;;;;;;;10.27;5.50;;;;;;;;;;6329085;22;20033;-83
2022/10/22 10:50:13;;;;;;;7.43;5.57;;;;;;;;;;6272197;22;20015;-82
2022/10/22 10:52:40;;;;;;;7.68;4.93;;;;;;;;;;6271323;22;20350;-83
2022/10/22 10:55:05;;;;;;;10.43;5.57;;;;;;;;;;6247239;22;20051;-85
2022/10/22 10:57:32;;;;;;;9.32;5.63;;;;;;;;;;6301752;22;20011;-83
2022/10/22 11:00:10;;;;;;;8.35;4.63;;;;;;;;;;6328367;22;20365;-84
2022/10/22 11:02:41;;;;;;;10.77;4.82;;;;;;;;;;6276689;22;20011;-86
2022/10/22 11:05:25;;;;;;;6.72;4.43;;;;;;;;;;6251953;22;20130;-84
2022/10/22 11:08:20;;;;;;;5.50;4.47;;;;;;;;;;6306287;22;19995;-85
2022/10/22 11:10:47;;;;;;;8.57;5.43;;;;;;;;;;6247745;22;20015;-84
2022/10/22 11:13:14;;;;;;;7.22;5.18;;;;;;;;;;6302734;22;20026;-84
2022/10/22 11:15:40;;;;;;;7.18;4.78;;;;;;;;;;6275288;22;20023;-84
2022/10/22 11:18:33;;;;;;;9.18;5.05;;;;;;;;;;6310625;22;20018;-85
2022/10/22 11:21:18;;;;;;;7.28;4.50;;;;;;;;;;6306548;22;19987;-85
2022/10/22 11:23:50;;;;;;;7.00;4.75;;;;;;;;;;6338575;22;20006;-86
2022/10/22 11:26:28;;;;;;;8.80;5.07;;;;;;;;;;6287256;22;20021;-85
2022/10/22 11:28:57;;;;;;;8.52;5.28;;;;;;;;;;6311368;22;20034;-87
2022/10/22 11:31:24;;;;;;;10.13;7.68;;;;;;;;;;6287711;22;20003;-85
2022/10/22 11:33:56;;;;;;;8.43;4.80;;;;;;;;;;6287874;22;20003;-85
2022/10/22 11:36:26;;;;;;;8.27;5.03;;;;;;;;;;6314830;22;20060;-85
2022/10/22 11:39:03;;;;;;;7.97;5.63;;;;;;;;;;6312893;22;20015;-85
2022/10/22 11:47:20;;;;;;;10.70;5.95;;;;;;;;;;6317652;22;20021;-84
2022/10/22 11:49:59;;;;;;;8.80;6.68;;;;;;;;;;6337493;22;20006;-87
2022/10/22 11:52:27;;;;;;;11.07;7.30;;;;;;;;;;6336390;22;20018;-84
2022/10/22 11:54:53;;;;;;;8.77;6.38;;;;;;;;;;6308552;22;20014;-85
2022/10/22 11:57:35;;;;;;;12.45;7.10;;;;;;;;;;6310023;22;20102;-85
2022/10/22 12:00:01;;;;;;;11.48;7.32;;;;;;;;;;6310430;22;19998;-86
2022/10/22 12:02:41;;;;;;;11.65;6.95;;;;;;;;;;6334243;22;19999;-82
2022/10/22 12:05:22;;;;;;;10.75;6.22;;;;;;;;;;6310249;22;20014;-85
2022/10/22 12:07:56;;;;;;;8.20;6.20;;;;;;;;;;6310946;22;20010;-83
2022/10/22 12:10:26;;;;;;;8.43;6.10;;;;;;;;;;6309780;22;20014;-84
2022/10/22 12:12:53;;;;;;;9.95;6.70;;;;;;;;;;6311662;22;20014;-84
2022/10/22 12:15:25;;;;;;;9.55;6.40;;;;;;;;;;6310876;22;20568;-85
2022/10/22 12:20:26;;;;;;;8.88;6.30;;;;;;;;;;6348675;22;20033;-84
2022/10/22 12:23:11;;;;;;;10.07;7.38;;;;;;;;;;6341622;22;20041;-85
2022/10/22 12:25:38;;;;;;;12.52;8.13;;;;;;;;;;6285050;22;19996;-85
2022/10/22 12:28:10;;;;;;;15.15;9.15;;;;;;;;;;6309729;22;20050;-84
2022/10/22 12:30:36;;;;;;;15.38;8.60;;;;;;;;;;6338716;22;20034;-85
2022/10/22 12:38:27;;;;;;;15.55;8.88;;;;;;;;;;6266517;22;20050;-82
2022/10/22 12:40:53;;;;;;;14.05;9.05;;;;;;;;;;6235522;23;20004;-84
2022/10/22 12:43:23;;;;;;;16.55;10.02;;;;;;;;;;6203222;23;20007;-82
2022/10/22 12:45:48;;;;;;;15.25;8.15;;;;;;;;;;6233268;22;20069;-80
2022/10/22 12:48:18;;;;;;;10.40;8.10;;;;;;;;;;6209765;22;19999;-81
2022/10/22 12:50:46;;;;;;;11.93;8.20;;;;;;;;;;6240109;22;20011;-84
2022/10/22 12:53:16;;;;;;;17.35;9.88;;;;;;;;;;6213974;22;20051;-82
2022/10/22 12:55:42;;;;;;;19.65;11.07;;;;;;;;;;6268619;22;20008;-85
2022/10/22 12:58:10;;;;;;;22.17;12.68;;;;;;;;;;6217352;22;20440;-85
2022/10/22 13:00:36;;;;;;;19.75;11.93;;;;;;;;;;6241481;22;20012;-83
2022/10/22 13:03:03;;;;;;;16.40;10.88;;;;;;;;;;6220096;22;20010;-86
2022/10/22 13:05:37;;;;;;;15.90;10.85;;;;;;;;;;6275467;22;20019;-85
2022/10/22 13:08:03;;;;;;;21.02;11.65;;;;;;;;;;6226265;22;20020;-85
2022/10/22 13:10:33;;;;;;;16.80;10.93;;;;;;;;;;6242586;22;20000;-83
2022/10/22 13:15:36;;;;;;;17.48;10.18;;;;;;;;;;6294074;22;20030;-83
2022/10/22 13:18:21;;;;;;;13.27;9.02;;;;;;;;;;6214757;22;20070;-82
2022/10/22 13:20:51;;;;;;;14.50;8.00;;;;;;;;;;6241157;22;20011;-84
2022/10/22 13:23:25;;;;;;;8.55;6.20;;;;;;;;;;6243772;22;20332;-85
2022/10/22 13:26:10;;;;;;;9.63;5.93;;;;;;;;;;6244677;22;20063;-83
2022/10/22 13:28:36;;;;;;;10.85;6.93;;;;;;;;;;6269504;22;20035;-83
2022/10/22 13:31:14;;;;;;;8.40;5.70;;;;;;;;;;6219097;22;20008;-83
2022/10/22 13:33:41;;;;;;;8.30;5.50;;;;;;;;;;6222049;22;20079;-84
2022/10/22 13:36:08;;;;;;;11.75;5.80;;;;;;;;;;6245328;22;20006;-84
2022/10/22 13:38:34;;;;;;;10.57;6.35;;;;;;;;;;6242293;22;20012;-84
2022/10/22 13:41:04;;;;;;;12.93;7.05;;;;;;;;;;6272585;22;20027;-85
2022/10/22 13:43:31;;;;;;;13.15;6.93;;;;;;;;;;6271510;22;20019;-86
2022/10/22 13:45:57;;;;;;;8.88;5.95;;;;;;;;;;6217214;22;20051;-84
2022/10/22 13:48:23;;;;;;;10.30;5.97;;;;;;;;;;6214807;22;20012;-84
2022/10/22 13:50:48;;;;;;;10.27;5.30;;;;;;;;;;6214877;22;20012;-84
2022/10/22 13:53:16;;;;;;;12.07;6.18;;;;;;;;;;6211251;22;20039;-83
2022/10/22 13:55:43;;;;;;;12.02;5.80;;;;;;;;;;6235015;22;20027;-83
2022/10/22 13:58:13;;;;;;;9.60;5.18;;;;;;;;;;6261578;22;20014;-83
2022/10/22 14:00:39;;;;;;;8.75;5.47;;;;;;;;;;6235335;22;20016;-83
2022/10/22 14:03:05;;;;;;;8.63;6.28;;;;;;;;;;6210360;22;20447;-82
2022/10/22 14:05:31;;;;;;;8.63;6.80;;;;;;;;;;6232541;22;20003;-83
2022/10/22 14:07:57;;;;;;;;;;;;;;;;;;6234637;22;20050;-82
2022/10/22 14:10:23;;;;;;;14.48;8.25;;;;;;;;;;6260182;22;19907;-84
2022/10/22 14:12:48;;;;;;;20.88;9.48;;;;;;;;;;6236174;22;20011;-83
2022/10/22 14:15:15;;;;;;;13.82;8.05;;;;;;;;;;6233916;23;20039;-86
2022/10/22 14:17:56;;;;;;;12.80;9.20;;;;;;;;;;6259673;23;20012;-83
2022/10/22 14:20:23;;;;;;;17.13;9.30;;;;;;;;;;6259718;23;20016;-83
2022/10/22 14:22:49;;;;;;;17.80;10.68;;;;;;;;;;6237393;23;20004;-85
2022/10/22 14:25:15;;;;;;;15.75;10.13;;;;;;;;;;6191404;23;20035;-82
2022/10/22 14:27:41;;;;;;;17.42;10.80;;;;;;;;;;6237068;22;20003;-84
2022/10/22 14:30:07;;;;;;;18.77;10.90;;;;;;;;;;6232932;23;20012;-84
2022/10/22 14:32:33;;;;;;;15.35;10.70;;;;;;;;;;6238864;23;20015;-83
2022/10/22 14:35:00;;;;;;;;;;;;;;;;;;6214302;23;20412;-82
2022/10/22 14:37:25;;;;;;;14.07;9.53;;;;;;;;;;6259179;23;19947;-82
2022/10/22 14:39:58;;;;;;;15.05;8.98;;;;;;;;;;6229660;23;20019;-82
2022/10/22 14:42:24;;;;;;;13.88;9.48;;;;;;;;;;6203378;23;20012;-83
2022/10/22 14:44:50;;;;;;;14.75;9.63;;;;;;;;;;6233609;23;20000;-82
2022/10/22 14:47:15;;;;;;;;;;;;;;;;;;6257633;23;20043;-82
2022/10/22 14:49:41;;;;;;;25.38;9.93;;;;;;;;;;6257175;23;19915;-81
2022/10/22 14:52:06;;;;;;;14.48;9.73;;;;;;;;;;6230355;23;20206;-86
2022/10/22 14:54:34;;;;;;;16.25;9.82;;;;;;;;;;6261714;23;20000;-84
2022/10/22 14:57:00;;;;;;;18.92;10.50;;;;;;;;;;6235600;23;20400;-84
2022/10/22 14:59:27;;;;;;;19.52;11.05;;;;;;;;;;6218392;23;19985;-83
2022/10/22 15:01:54;;;;;;;17.08;11.23;;;;;;;;;;6238799;23;20008;-85
2022/10/22 15:04:19;;;;;;;21.75;12.05;;;;;;;;;;6213392;23;20000;-84
2022/10/22 15:06:45;;;;;;;;;;;;;;;;;;6212173;23;20012;-86
2022/10/22 15:09:10;;;;;;;20.50;12.43;;;;;;;;;;6234469;23;20244;-83
2022/10/22 15:11:35;;;;;;;;;;;;;;;;;;6208593;23;20019;-84
2022/10/22 15:14:01;;;;;;;20.40;11.65;;;;;;;;;;6264663;22;19923;-83
2022/10/22 15:16:28;;;;;;;;;;;;;;;;;;6240932;22;20012;-84
2022/10/22 15:18:53;;;;;;;27.30;14.33;;;;;;;;;;6292868;22;19918;-85
2022/10/22 15:21:20;;;;;;;26.88;15.98;;;;;;;;;;6214944;22;20312;-83
2022/10/22 15:23:45;;;;;;;23.95;15.23;;;;;;;;;;6243524;22;20023;-83
2022/10/22 15:26:11;;;;;;;25.70;15.30;;;;;;;;;;6242817;22;20012;-84
2022/10/22 15:28:37;;;;;;;23.52;15.60;;;;;;;;;;6216364;22;19999;-83
2022/10/22 15:31:02;;;;;;;;;;;;;;;;;;6242634;22;20011;-83
2022/10/22 15:33:28;;;;;;;33.58;18.67;;;;;;;;;;6242388;22;19903;-83
2022/10/22 15:35:54;;;;;;;42.20;20.92;;;;;;;;;;6243394;22;20014;-82
2022/10/22 15:38:19;;;;;;;43.10;24.42;;;;;;;;;;6215759;22;20000;-82
2022/10/22 15:40:45;;;;;;;;;;;;;;;;;;6216934;22;20451;-82
2022/10/22 15:43:10;;;;;;;46.50;27.20;;;;;;;;;;6266418;22;19963;-83
2022/10/22 15:45:36;;;;;;;43.47;22.38;;;;;;;;;;6244367;22;20401;-83
2022/10/22 15:48:02;;;;;;;39.38;20.33;;;;;;;;;;6244008;22;20339;-84
2022/10/22 15:50:28;;;;;;;33.97;17.83;;;;;;;;;;6241837;22;20008;-86
2022/10/22 15:52:54;;;;;;;40.58;18.58;;;;;;;;;;6244635;22;19979;-84
2022/10/22 15:55:20;;;;;;;;;;;;;;;;;;6240561;22;20008;-83
2022/10/22 15:57:45;;;;;;;44.45;18.67;;;;;;;;;;6239236;22;20037;-84